sensor_id;sensor_type;location;lat;lon;timestamp;temperature;humidity
63047;DHT22;62025;39.238;9.126;2024-02-23T00:01:05;14.70;84.50
63047;DHT22;62025;39.238;9.126;2024-02-23T00:03:33;14.70;84.60
63047;DHT22;62025;39.238;9.126;2024-02-23T00:06:00;14.60;85.10
63047;DHT22;62025;39.238;9.126;2024-02-23T00:08:26;14.70;85.20
63047;DHT22;62025;39.238;9.126;2024-02-23T00:10:52;14.80;85.20
63047;DHT22;62025;39.238;9.126;2024-02-23T00:13:18;14.80;85.20
63047;DHT22;62025;39.238;9.126;2024-02-23T00:15:43;14.80;85.40
63047;DHT22;62025;39.238;9.126;2024-02-23T00:18:09;14.80;85.40
63047;DHT22;62025;39.238;9.126;2024-02-23T00:20:35;14.80;85.40
63047;DHT22;62025;39.238;9.126;2024-02-23T00:23:02;14.80;85.50
63047;DHT22;62025;39.238;9.126;2024-02-23T00:25:29;14.80;85.50
63047;DHT22;62025;39.238;9.126;2024-02-23T00:27:54;14.80;85.50
63047;DHT22;62025;39.238;9.126;2024-02-23T00:30:20;14.80;85.40
63047;DHT22;62025;39.238;9.126;2024-02-23T00:32:46;14.90;85.20
63047;DHT22;62025;39.238;9.126;2024-02-23T00:35:12;14.90;85.00
63047;DHT22;62025;39.238;9.126;2024-02-23T00:37:38;14.80;85.00
63047;DHT22;62025;39.238;9.126;2024-02-23T00:40:05;14.80;84.80
63047;DHT22;62025;39.238;9.126;2024-02-23T00:42:31;14.80;84.20
63047;DHT22;62025;39.238;9.126;2024-02-23T00:44:57;14.80;83.90
63047;DHT22;62025;39.238;9.126;2024-02-23T00:47:23;14.80;83.80
63047;DHT22;62025;39.238;9.126;2024-02-23T00:49:49;14.90;83.50
63047;DHT22;62025;39.238;9.126;2024-02-23T00:52:16;15.00;83.20
63047;DHT22;62025;39.238;9.126;2024-02-23T00:54:42;15.00;82.90
63047;DHT22;62025;39.238;9.126;2024-02-23T00:57:08;15.00;82.80
63047;DHT22;62025;39.238;9.126;2024-02-23T00:59:33;15.00;82.60
63047;DHT22;62025;39.238;9.126;2024-02-23T01:01:59;15.00;82.40
63047;DHT22;62025;39.238;9.126;2024-02-23T01:04:25;14.90;82.30
63047;DHT22;62025;39.238;9.126;2024-02-23T01:06:51;14.90;82.20
63047;DHT22;62025;39.238;9.126;2024-02-23T01:09:17;14.80;82.20
63047;DHT22;62025;39.238;9.126;2024-02-23T01:11:47;14.80;82.10
63047;DHT22;62025;39.238;9.126;2024-02-23T01:14:13;14.80;82.10
63047;DHT22;62025;39.238;9.126;2024-02-23T01:16:39;14.80;82.10
63047;DHT22;62025;39.238;9.126;2024-02-23T01:19:05;14.90;81.90
63047;DHT22;62025;39.238;9.126;2024-02-23T01:21:31;14.90;81.50
63047;DHT22;62025;39.238;9.126;2024-02-23T01:23:57;14.90;81.30
63047;DHT22;62025;39.238;9.126;2024-02-23T01:26:23;14.90;81.30
63047;DHT22;62025;39.238;9.126;2024-02-23T01:28:49;14.80;81.30
63047;DHT22;62025;39.238;9.126;2024-02-23T01:31:16;14.80;81.30
63047;DHT22;62025;39.238;9.126;2024-02-23T01:33:42;14.90;81.20
63047;DHT22;62025;39.238;9.126;2024-02-23T01:36:08;14.80;80.90
63047;DHT22;62025;39.238;9.126;2024-02-23T01:38:35;14.80;81.10
63047;DHT22;62025;39.238;9.126;2024-02-23T01:41:01;14.80;81.10
63047;DHT22;62025;39.238;9.126;2024-02-23T01:43:27;14.80;80.90
63047;DHT22;62025;39.238;9.126;2024-02-23T01:45:54;14.80;81.10
63047;DHT22;62025;39.238;9.126;2024-02-23T01:48:20;14.80;81.10
63047;DHT22;62025;39.238;9.126;2024-02-23T01:50:47;14.80;81.00
63047;DHT22;62025;39.238;9.126;2024-02-23T01:53:13;14.80;81.20
63047;DHT22;62025;39.238;9.126;2024-02-23T01:55:41;14.80;81.30
63047;DHT22;62025;39.238;9.126;2024-02-23T01:58:07;14.60;82.20
63047;DHT22;62025;39.238;9.126;2024-02-23T02:00:34;14.70;82.20
63047;DHT22;62025;39.238;9.126;2024-02-23T02:03:00;14.70;82.10
63047;DHT22;62025;39.238;9.126;2024-02-23T02:05:27;14.80;81.80
63047;DHT22;62025;39.238;9.126;2024-02-23T02:07:55;14.70;81.80
63047;DHT22;62025;39.238;9.126;2024-02-23T02:10:25;14.60;82.30
63047;DHT22;62025;39.238;9.126;2024-02-23T02:12:52;14.70;82.00
63047;DHT22;62025;39.238;9.126;2024-02-23T02:15:18;14.60;82.10
63047;DHT22;62025;39.238;9.126;2024-02-23T02:17:44;14.80;82.00
63047;DHT22;62025;39.238;9.126;2024-02-23T02:20:12;14.70;82.00
63047;DHT22;62025;39.238;9.126;2024-02-23T02:22:39;14.70;82.00
63047;DHT22;62025;39.238;9.126;2024-02-23T02:25:06;14.40;82.40
63047;DHT22;62025;39.238;9.126;2024-02-23T02:27:32;14.40;82.50
63047;DHT22;62025;39.238;9.126;2024-02-23T02:29:58;14.50;82.60
63047;DHT22;62025;39.238;9.126;2024-02-23T02:32:24;14.50;82.50
63047;DHT22;62025;39.238;9.126;2024-02-23T02:34:50;14.60;82.40
63047;DHT22;62025;39.238;9.126;2024-02-23T02:37:16;14.60;82.20
63047;DHT22;62025;39.238;9.126;2024-02-23T02:39:42;14.50;82.30
63047;DHT22;62025;39.238;9.126;2024-02-23T02:42:08;14.40;82.50
63047;DHT22;62025;39.238;9.126;2024-02-23T02:44:34;14.40;82.50
63047;DHT22;62025;39.238;9.126;2024-02-23T02:47:00;14.50;82.40
63047;DHT22;62025;39.238;9.126;2024-02-23T02:49:26;14.50;82.20
63047;DHT22;62025;39.238;9.126;2024-02-23T02:51:52;14.50;82.30
63047;DHT22;62025;39.238;9.126;2024-02-23T02:54:18;14.50;82.40
63047;DHT22;62025;39.238;9.126;2024-02-23T02:56:44;14.50;82.30
63047;DHT22;62025;39.238;9.126;2024-02-23T02:59:13;14.50;82.50
63047;DHT22;62025;39.238;9.126;2024-02-23T03:01:39;14.50;82.50
63047;DHT22;62025;39.238;9.126;2024-02-23T03:04:05;14.60;82.50
63047;DHT22;62025;39.238;9.126;2024-02-23T03:06:31;14.50;82.30
63047;DHT22;62025;39.238;9.126;2024-02-23T03:08:57;14.50;82.40
63047;DHT22;62025;39.238;9.126;2024-02-23T03:11:23;14.50;82.50
63047;DHT22;62025;39.238;9.126;2024-02-23T03:13:49;14.50;82.50
63047;DHT22;62025;39.238;9.126;2024-02-23T03:16:16;14.40;82.70
63047;DHT22;62025;39.238;9.126;2024-02-23T03:18:43;14.40;82.90
63047;DHT22;62025;39.238;9.126;2024-02-23T03:21:09;14.40;82.90
63047;DHT22;62025;39.238;9.126;2024-02-23T03:23:36;14.30;82.80
63047;DHT22;62025;39.238;9.126;2024-02-23T03:26:02;14.40;82.80
63047;DHT22;62025;39.238;9.126;2024-02-23T03:28:28;14.30;82.80
63047;DHT22;62025;39.238;9.126;2024-02-23T03:30:54;14.40;82.90
63047;DHT22;62025;39.238;9.126;2024-02-23T03:33:20;14.30;83.00
63047;DHT22;62025;39.238;9.126;2024-02-23T03:35:46;14.30;83.20
63047;DHT22;62025;39.238;9.126;2024-02-23T03:38:12;14.30;83.10
63047;DHT22;62025;39.238;9.126;2024-02-23T03:40:38;14.20;83.30
63047;DHT22;62025;39.238;9.126;2024-02-23T03:43:04;14.20;83.30
63047;DHT22;62025;39.238;9.126;2024-02-23T03:45:31;14.30;83.30
63047;DHT22;62025;39.238;9.126;2024-02-23T03:47:57;14.30;83.40
63047;DHT22;62025;39.238;9.126;2024-02-23T03:50:23;14.30;83.20
63047;DHT22;62025;39.238;9.126;2024-02-23T03:52:49;14.20;83.60
63047;DHT22;62025;39.238;9.126;2024-02-23T03:55:15;14.10;83.60
63047;DHT22;62025;39.238;9.126;2024-02-23T03:57:41;14.00;83.60
63047;DHT22;62025;39.238;9.126;2024-02-23T04:00:08;14.10;83.70
63047;DHT22;62025;39.238;9.126;2024-02-23T04:02:39;14.10;83.60
63047;DHT22;62025;39.238;9.126;2024-02-23T04:05:06;14.10;83.80
63047;DHT22;62025;39.238;9.126;2024-02-23T04:07:32;14.00;84.10
63047;DHT22;62025;39.238;9.126;2024-02-23T04:09:58;14.10;83.90
63047;DHT22;62025;39.238;9.126;2024-02-23T04:12:24;14.10;84.30
63047;DHT22;62025;39.238;9.126;2024-02-23T04:14:50;14.20;84.70
63047;DHT22;62025;39.238;9.126;2024-02-23T04:17:16;14.10;84.80
63047;DHT22;62025;39.238;9.126;2024-02-23T04:19:43;14.00;84.80
63047;DHT22;62025;39.238;9.126;2024-02-23T04:22:09;14.10;84.70
63047;DHT22;62025;39.238;9.126;2024-02-23T04:24:39;14.10;84.40
63047;DHT22;62025;39.238;9.126;2024-02-23T04:27:07;14.10;84.30
63047;DHT22;62025;39.238;9.126;2024-02-23T04:29:33;14.20;84.10
63047;DHT22;62025;39.238;9.126;2024-02-23T04:32:00;14.20;84.10
63047;DHT22;62025;39.238;9.126;2024-02-23T04:34:27;14.20;83.80
63047;DHT22;62025;39.238;9.126;2024-02-23T04:36:54;14.10;83.80
63047;DHT22;62025;39.238;9.126;2024-02-23T04:39:20;14.20;83.90
63047;DHT22;62025;39.238;9.126;2024-02-23T04:41:47;14.20;83.60
63047;DHT22;62025;39.238;9.126;2024-02-23T04:44:13;14.30;82.70
63047;DHT22;62025;39.238;9.126;2024-02-23T04:46:39;14.30;81.50
63047;DHT22;62025;39.238;9.126;2024-02-23T04:49:05;14.40;80.90
63047;DHT22;62025;39.238;9.126;2024-02-23T04:51:30;14.50;80.30
63047;DHT22;62025;39.238;9.126;2024-02-23T04:53:56;14.60;80.10
63047;DHT22;62025;39.238;9.126;2024-02-23T04:56:22;14.60;79.60
63047;DHT22;62025;39.238;9.126;2024-02-23T04:58:48;14.70;79.50
63047;DHT22;62025;39.238;9.126;2024-02-23T05:01:15;14.70;79.50
63047;DHT22;62025;39.238;9.126;2024-02-23T05:03:41;14.60;79.50
63047;DHT22;62025;39.238;9.126;2024-02-23T05:06:07;14.70;79.50
63047;DHT22;62025;39.238;9.126;2024-02-23T05:08:33;14.70;77.20
63047;DHT22;62025;39.238;9.126;2024-02-23T05:10:59;14.80;77.10
63047;DHT22;62025;39.238;9.126;2024-02-23T05:13:25;14.80;77.40
63047;DHT22;62025;39.238;9.126;2024-02-23T05:15:51;14.90;77.70
63047;DHT22;62025;39.238;9.126;2024-02-23T05:18:17;14.90;77.90
63047;DHT22;62025;39.238;9.126;2024-02-23T05:20:43;14.80;78.20
63047;DHT22;62025;39.238;9.126;2024-02-23T05:23:09;14.80;78.30
63047;DHT22;62025;39.238;9.126;2024-02-23T05:25:35;14.90;78.50
63047;DHT22;62025;39.238;9.126;2024-02-23T05:28:01;14.90;78.50
63047;DHT22;62025;39.238;9.126;2024-02-23T05:30:27;14.90;78.70
63047;DHT22;62025;39.238;9.126;2024-02-23T05:32:57;14.90;78.60
63047;DHT22;62025;39.238;9.126;2024-02-23T05:35:24;15.00;78.70
63047;DHT22;62025;39.238;9.126;2024-02-23T05:37:52;15.00;78.60
63047;DHT22;62025;39.238;9.126;2024-02-23T05:40:18;15.00;78.40
63047;DHT22;62025;39.238;9.126;2024-02-23T05:42:43;15.00;78.20
63047;DHT22;62025;39.238;9.126;2024-02-23T05:45:09;15.00;77.80
63047;DHT22;62025;39.238;9.126;2024-02-23T05:47:39;15.00;77.70
63047;DHT22;62025;39.238;9.126;2024-02-23T05:50:05;15.00;77.80
63047;DHT22;62025;39.238;9.126;2024-02-23T05:52:33;15.10;78.10
63047;DHT22;62025;39.238;9.126;2024-02-23T05:55:00;15.00;78.40
63047;DHT22;62025;39.238;9.126;2024-02-23T05:57:29;15.00;77.30
63047;DHT22;62025;39.238;9.126;2024-02-23T05:59:55;15.20;75.50
63047;DHT22;62025;39.238;9.126;2024-02-23T06:02:22;15.20;76.50
63047;DHT22;62025;39.238;9.126;2024-02-23T06:04:48;15.10;77.10
63047;DHT22;62025;39.238;9.126;2024-02-23T06:07:14;15.10;77.20
63047;DHT22;62025;39.238;9.126;2024-02-23T06:09:41;15.10;77.20
63047;DHT22;62025;39.238;9.126;2024-02-23T06:12:08;15.10;77.00
63047;DHT22;62025;39.238;9.126;2024-02-23T06:14:35;15.10;77.10
63047;DHT22;62025;39.238;9.126;2024-02-23T06:17:02;15.10;76.90
63047;DHT22;62025;39.238;9.126;2024-02-23T06:19:28;15.20;76.10
63047;DHT22;62025;39.238;9.126;2024-02-23T06:21:54;15.20;76.70
63047;DHT22;62025;39.238;9.126;2024-02-23T06:24:20;15.20;76.60
63047;DHT22;62025;39.238;9.126;2024-02-23T06:26:46;15.20;76.70
63047;DHT22;62025;39.238;9.126;2024-02-23T06:29:14;15.20;77.00
63047;DHT22;62025;39.238;9.126;2024-02-23T06:31:40;15.20;77.20
63047;DHT22;62025;39.238;9.126;2024-02-23T06:34:07;15.20;77.30
63047;DHT22;62025;39.238;9.126;2024-02-23T06:36:33;15.20;77.30
63047;DHT22;62025;39.238;9.126;2024-02-23T06:38:59;15.20;77.30
63047;DHT22;62025;39.238;9.126;2024-02-23T06:41:25;15.20;77.10
63047;DHT22;62025;39.238;9.126;2024-02-23T06:43:52;15.30;76.20
63047;DHT22;62025;39.238;9.126;2024-02-23T06:46:21;15.30;75.80
63047;DHT22;62025;39.238;9.126;2024-02-23T06:48:47;15.30;76.00
63047;DHT22;62025;39.238;9.126;2024-02-23T06:51:13;15.30;76.00
63047;DHT22;62025;39.238;9.126;2024-02-23T06:53:41;15.30;75.80
63047;DHT22;62025;39.238;9.126;2024-02-23T06:56:08;15.40;74.70
63047;DHT22;62025;39.238;9.126;2024-02-23T06:58:34;15.40;73.80
63047;DHT22;62025;39.238;9.126;2024-02-23T07:01:01;15.40;74.00
63047;DHT22;62025;39.238;9.126;2024-02-23T07:03:28;15.50;73.40
63047;DHT22;62025;39.238;9.126;2024-02-23T07:05:55;15.60;73.20
63047;DHT22;62025;39.238;9.126;2024-02-23T07:08:21;15.50;73.30
63047;DHT22;62025;39.238;9.126;2024-02-23T07:10:47;15.50;73.80
63047;DHT22;62025;39.238;9.126;2024-02-23T07:13:13;15.50;73.90
63047;DHT22;62025;39.238;9.126;2024-02-23T07:15:39;15.50;73.30
63047;DHT22;62025;39.238;9.126;2024-02-23T07:18:05;15.60;73.00
63047;DHT22;62025;39.238;9.126;2024-02-23T07:20:35;15.60;72.70
63047;DHT22;62025;39.238;9.126;2024-02-23T07:23:02;15.60;72.80
63047;DHT22;62025;39.238;9.126;2024-02-23T07:25:28;15.60;72.80
63047;DHT22;62025;39.238;9.126;2024-02-23T07:27:54;15.70;72.20
63047;DHT22;62025;39.238;9.126;2024-02-23T07:30:19;15.80;72.30
63047;DHT22;62025;39.238;9.126;2024-02-23T07:32:45;15.90;72.00
63047;DHT22;62025;39.238;9.126;2024-02-23T07:35:14;16.00;71.80
63047;DHT22;62025;39.238;9.126;2024-02-23T07:37:40;16.00;72.10
63047;DHT22;62025;39.238;9.126;2024-02-23T07:40:06;16.00;71.90
63047;DHT22;62025;39.238;9.126;2024-02-23T07:42:33;15.90;72.20
63047;DHT22;62025;39.238;9.126;2024-02-23T07:45:03;16.00;72.30
63047;DHT22;62025;39.238;9.126;2024-02-23T07:47:31;16.00;72.20
63047;DHT22;62025;39.238;9.126;2024-02-23T07:49:57;16.10;71.80
63047;DHT22;62025;39.238;9.126;2024-02-23T07:52:24;16.10;71.80
63047;DHT22;62025;39.238;9.126;2024-02-23T07:54:54;16.20;71.70
63047;DHT22;62025;39.238;9.126;2024-02-23T07:57:20;16.20;71.30
63047;DHT22;62025;39.238;9.126;2024-02-23T07:59:47;16.20;71.50
63047;DHT22;62025;39.238;9.126;2024-02-23T08:02:14;16.30;71.90
63047;DHT22;62025;39.238;9.126;2024-02-23T08:04:41;16.20;72.00
63047;DHT22;62025;39.238;9.126;2024-02-23T08:07:08;16.20;72.30
63047;DHT22;62025;39.238;9.126;2024-02-23T08:09:34;16.20;72.40
63047;DHT22;62025;39.238;9.126;2024-02-23T08:12:00;16.20;72.40
63047;DHT22;62025;39.238;9.126;2024-02-23T08:14:26;16.30;72.10
63047;DHT22;62025;39.238;9.126;2024-02-23T08:16:52;16.30;72.10
63047;DHT22;62025;39.238;9.126;2024-02-23T08:19:18;16.40;71.40
63047;DHT22;62025;39.238;9.126;2024-02-23T08:21:43;16.50;71.30
63047;DHT22;62025;39.238;9.126;2024-02-23T08:24:10;16.50;71.40
63047;DHT22;62025;39.238;9.126;2024-02-23T08:26:36;16.60;71.30
63047;DHT22;62025;39.238;9.126;2024-02-23T08:29:04;16.60;71.10
63047;DHT22;62025;39.238;9.126;2024-02-23T08:31:31;16.60;71.30
63047;DHT22;62025;39.238;9.126;2024-02-23T08:33:57;16.60;71.40
63047;DHT22;62025;39.238;9.126;2024-02-23T08:36:23;16.70;71.40
63047;DHT22;62025;39.238;9.126;2024-02-23T08:38:48;16.80;71.00
63047;DHT22;62025;39.238;9.126;2024-02-23T08:41:14;16.80;70.80
63047;DHT22;62025;39.238;9.126;2024-02-23T08:43:40;16.80;70.80
63047;DHT22;62025;39.238;9.126;2024-02-23T08:46:06;16.80;70.70
63047;DHT22;62025;39.238;9.126;2024-02-23T08:48:33;16.80;70.70
63047;DHT22;62025;39.238;9.126;2024-02-23T08:50:59;17.00;70.40
63047;DHT22;62025;39.238;9.126;2024-02-23T08:53:25;17.00;70.10
63047;DHT22;62025;39.238;9.126;2024-02-23T08:55:51;17.00;70.10
63047;DHT22;62025;39.238;9.126;2024-02-23T08:58:16;17.00;69.90
63047;DHT22;62025;39.238;9.126;2024-02-23T09:00:43;17.00;69.80
63047;DHT22;62025;39.238;9.126;2024-02-23T09:03:09;17.00;69.90
63047;DHT22;62025;39.238;9.126;2024-02-23T09:05:35;17.00;70.10
63047;DHT22;62025;39.238;9.126;2024-02-23T09:08:00;17.00;70.20
63047;DHT22;62025;39.238;9.126;2024-02-23T09:10:26;17.00;70.40
63047;DHT22;62025;39.238;9.126;2024-02-23T09:12:52;17.10;70.30
63047;DHT22;62025;39.238;9.126;2024-02-23T09:15:18;17.20;70.00
63047;DHT22;62025;39.238;9.126;2024-02-23T09:17:44;17.30;70.00
63047;DHT22;62025;39.238;9.126;2024-02-23T09:20:11;17.30;69.90
63047;DHT22;62025;39.238;9.126;2024-02-23T09:22:37;17.30;70.00
63047;DHT22;62025;39.238;9.126;2024-02-23T09:25:03;17.20;69.90
63047;DHT22;62025;39.238;9.126;2024-02-23T09:27:32;17.30;70.00
63047;DHT22;62025;39.238;9.126;2024-02-23T09:29:58;17.30;70.20
63047;DHT22;62025;39.238;9.126;2024-02-23T09:32:24;17.30;70.10
63047;DHT22;62025;39.238;9.126;2024-02-23T09:34:50;17.30;69.90
63047;DHT22;62025;39.238;9.126;2024-02-23T09:37:16;17.30;69.90
63047;DHT22;62025;39.238;9.126;2024-02-23T09:39:42;17.30;69.80
63047;DHT22;62025;39.238;9.126;2024-02-23T09:42:10;17.30;69.60
63047;DHT22;62025;39.238;9.126;2024-02-23T09:44:39;17.20;69.70
63047;DHT22;62025;39.238;9.126;2024-02-23T09:47:08;17.30;69.60
63047;DHT22;62025;39.238;9.126;2024-02-23T09:49:40;17.30;69.50
63047;DHT22;62025;39.238;9.126;2024-02-23T09:52:09;17.40;69.60
63047;DHT22;62025;39.238;9.126;2024-02-23T09:54:39;17.40;69.50
63047;DHT22;62025;39.238;9.126;2024-02-23T09:57:07;17.50;69.50
63047;DHT22;62025;39.238;9.126;2024-02-23T09:59:34;17.50;69.50
63047;DHT22;62025;39.238;9.126;2024-02-23T10:02:09;17.50;68.90
63047;DHT22;62025;39.238;9.126;2024-02-23T10:04:39;17.60;68.50
63047;DHT22;62025;39.238;9.126;2024-02-23T10:07:06;17.70;68.40
63047;DHT22;62025;39.238;9.126;2024-02-23T10:09:32;17.90;67.60
63047;DHT22;62025;39.238;9.126;2024-02-23T10:11:58;18.10;66.90
63047;DHT22;62025;39.238;9.126;2024-02-23T10:14:24;18.30;66.40
63047;DHT22;62025;39.238;9.126;2024-02-23T10:16:51;18.20;67.30
63047;DHT22;62025;39.238;9.126;2024-02-23T10:19:22;18.10;68.20
63047;DHT22;62025;39.238;9.126;2024-02-23T10:21:54;18.10;68.50
63047;DHT22;62025;39.238;9.126;2024-02-23T10:24:22;18.00;68.70
63047;DHT22;62025;39.238;9.126;2024-02-23T10:26:48;17.90;68.80
63047;DHT22;62025;39.238;9.126;2024-02-23T10:29:14;17.90;68.50
63047;DHT22;62025;39.238;9.126;2024-02-23T10:31:40;18.00;68.30
63047;DHT22;62025;39.238;9.126;2024-02-23T10:34:09;18.10;67.70
63047;DHT22;62025;39.238;9.126;2024-02-23T10:36:42;18.00;67.70
63047;DHT22;62025;39.238;9.126;2024-02-23T10:39:08;18.10;67.70
63047;DHT22;62025;39.238;9.126;2024-02-23T10:41:36;18.10;67.40
63047;DHT22;62025;39.238;9.126;2024-02-23T10:44:03;18.10;67.50
63047;DHT22;62025;39.238;9.126;2024-02-23T10:46:31;18.00;67.60
63047;DHT22;62025;39.238;9.126;2024-02-23T10:48:58;18.10;67.60
63047;DHT22;62025;39.238;9.126;2024-02-23T10:51:28;18.10;67.40
63047;DHT22;62025;39.238;9.126;2024-02-23T10:53:55;18.30;67.00
63047;DHT22;62025;39.238;9.126;2024-02-23T10:56:21;18.30;67.00
63047;DHT22;62025;39.238;9.126;2024-02-23T10:58:51;18.20;66.90
63047;DHT22;62025;39.238;9.126;2024-02-23T11:01:18;18.30;66.90
63047;DHT22;62025;39.238;9.126;2024-02-23T11:03:46;18.40;66.30
63047;DHT22;62025;39.238;9.126;2024-02-23T11:06:16;18.30;66.40
63047;DHT22;62025;39.238;9.126;2024-02-23T11:08:47;18.20;66.60
63047;DHT22;62025;39.238;9.126;2024-02-23T11:11:17;18.10;66.30
63047;DHT22;62025;39.238;9.126;2024-02-23T11:13:44;18.20;65.90
63047;DHT22;62025;39.238;9.126;2024-02-23T11:16:21;18.30;66.10
63047;DHT22;62025;39.238;9.126;2024-02-23T11:19:04;18.10;66.10
63047;DHT22;62025;39.238;9.126;2024-02-23T11:21:37;18.10;66.30
63047;DHT22;62025;39.238;9.126;2024-02-23T11:24:04;18.20;66.10
63047;DHT22;62025;39.238;9.126;2024-02-23T11:26:31;18.20;65.80
63047;DHT22;62025;39.238;9.126;2024-02-23T11:29:10;18.20;65.60
63047;DHT22;62025;39.238;9.126;2024-02-23T11:31:44;18.30;65.20
63047;DHT22;62025;39.238;9.126;2024-02-23T11:34:12;18.40;64.70
63047;DHT22;62025;39.238;9.126;2024-02-23T11:36:38;18.40;64.50
63047;DHT22;62025;39.238;9.126;2024-02-23T11:39:05;18.40;64.10
63047;DHT22;62025;39.238;9.126;2024-02-23T11:41:31;18.40;64.00
63047;DHT22;62025;39.238;9.126;2024-02-23T11:43:57;18.40;64.10
63047;DHT22;62025;39.238;9.126;2024-02-23T11:46:26;18.40;63.90
63047;DHT22;62025;39.238;9.126;2024-02-23T11:48:52;18.40;63.80
63047;DHT22;62025;39.238;9.126;2024-02-23T11:51:21;18.50;63.30
63047;DHT22;62025;39.238;9.126;2024-02-23T11:53:49;18.40;63.00
63047;DHT22;62025;39.238;9.126;2024-02-23T11:56:15;18.50;63.00
63047;DHT22;62025;39.238;9.126;2024-02-23T11:58:42;18.60;62.70
63047;DHT22;62025;39.238;9.126;2024-02-23T12:01:08;18.60;62.60
63047;DHT22;62025;39.238;9.126;2024-02-23T12:03:34;18.70;62.50
63047;DHT22;62025;39.238;9.126;2024-02-23T12:06:01;18.80;62.20
63047;DHT22;62025;39.238;9.126;2024-02-23T12:08:29;18.80;62.10
63047;DHT22;62025;39.238;9.126;2024-02-23T12:10:57;18.80;62.30
63047;DHT22;62025;39.238;9.126;2024-02-23T12:13:25;18.90;62.40
63047;DHT22;62025;39.238;9.126;2024-02-23T12:15:53;18.80;62.00
63047;DHT22;62025;39.238;9.126;2024-02-23T12:18:22;18.70;62.70
63047;DHT22;62025;39.238;9.126;2024-02-23T12:23:49;18.60;62.90
63047;DHT22;62025;39.238;9.126;2024-02-23T12:26:17;18.50;63.10
63047;DHT22;62025;39.238;9.126;2024-02-23T12:28:44;18.40;63.60
63047;DHT22;62025;39.238;9.126;2024-02-23T12:31:11;18.40;64.40
63047;DHT22;62025;39.238;9.126;2024-02-23T12:33:38;18.30;65.20
63047;DHT22;62025;39.238;9.126;2024-02-23T12:36:06;18.20;65.40
63047;DHT22;62025;39.238;9.126;2024-02-23T12:38:33;18.10;65.70
63047;DHT22;62025;39.238;9.126;2024-02-23T12:41:01;18.10;66.10
63047;DHT22;62025;39.238;9.126;2024-02-23T12:43:28;18.00;66.90
63047;DHT22;62025;39.238;9.126;2024-02-23T12:45:55;18.00;68.00
63047;DHT22;62025;39.238;9.126;2024-02-23T12:48:23;18.00;68.90
63047;DHT22;62025;39.238;9.126;2024-02-23T12:50:50;18.20;68.80
63047;DHT22;62025;39.238;9.126;2024-02-23T12:56:06;18.30;68.30
63047;DHT22;62025;39.238;9.126;2024-02-23T12:58:40;18.40;67.90
63047;DHT22;62025;39.238;9.126;2024-02-23T13:01:07;18.30;67.30
63047;DHT22;62025;39.238;9.126;2024-02-23T13:03:35;18.30;67.00
63047;DHT22;62025;39.238;9.126;2024-02-23T13:06:02;18.30;67.10
63047;DHT22;62025;39.238;9.126;2024-02-23T13:08:28;18.30;67.10
63047;DHT22;62025;39.238;9.126;2024-02-23T13:10:54;18.30;67.00
63047;DHT22;62025;39.238;9.126;2024-02-23T13:13:21;18.30;66.60
63047;DHT22;62025;39.238;9.126;2024-02-23T13:15:48;18.30;66.80
63047;DHT22;62025;39.238;9.126;2024-02-23T13:18:16;18.30;66.70
63047;DHT22;62025;39.238;9.126;2024-02-23T13:20:42;18.20;67.10
63047;DHT22;62025;39.238;9.126;2024-02-23T13:23:09;18.20;67.10
63047;DHT22;62025;39.238;9.126;2024-02-23T13:25:36;18.20;66.80
63047;DHT22;62025;39.238;9.126;2024-02-23T13:28:02;18.20;66.40
63047;DHT22;62025;39.238;9.126;2024-02-23T13:30:30;18.20;66.30
63047;DHT22;62025;39.238;9.126;2024-02-23T13:32:57;18.00;66.40
63047;DHT22;62025;39.238;9.126;2024-02-23T13:35:23;18.00;66.30
63047;DHT22;62025;39.238;9.126;2024-02-23T13:37:49;18.00;66.10
63047;DHT22;62025;39.238;9.126;2024-02-23T13:40:15;17.90;66.10
63047;DHT22;62025;39.238;9.126;2024-02-23T13:42:41;18.00;66.20
63047;DHT22;62025;39.238;9.126;2024-02-23T13:45:08;18.00;66.40
63047;DHT22;62025;39.238;9.126;2024-02-23T13:47:35;18.10;65.90
63047;DHT22;62025;39.238;9.126;2024-02-23T13:50:02;18.10;66.00
63047;DHT22;62025;39.238;9.126;2024-02-23T13:52:28;18.10;65.80
63047;DHT22;62025;39.238;9.126;2024-02-23T13:54:54;18.00;66.10
63047;DHT22;62025;39.238;9.126;2024-02-23T13:57:20;18.10;66.00
63047;DHT22;62025;39.238;9.126;2024-02-23T13:59:46;18.10;66.00
63047;DHT22;62025;39.238;9.126;2024-02-23T14:02:13;18.10;65.60
63047;DHT22;62025;39.238;9.126;2024-02-23T14:04:40;18.00;66.90
63047;DHT22;62025;39.238;9.126;2024-02-23T14:07:07;17.80;69.20
63047;DHT22;62025;39.238;9.126;2024-02-23T14:09:33;17.90;69.90
63047;DHT22;62025;39.238;9.126;2024-02-23T14:11:59;17.80;70.90
63047;DHT22;62025;39.238;9.126;2024-02-23T14:14:25;17.80;71.50
63047;DHT22;62025;39.238;9.126;2024-02-23T14:16:51;17.80;72.00
63047;DHT22;62025;39.238;9.126;2024-02-23T14:19:17;17.60;71.80
63047;DHT22;62025;39.238;9.126;2024-02-23T14:21:45;17.50;71.30
63047;DHT22;62025;39.238;9.126;2024-02-23T14:24:12;17.40;71.00
63047;DHT22;62025;39.238;9.126;2024-02-23T14:26:38;17.40;70.90
63047;DHT22;62025;39.238;9.126;2024-02-23T14:29:04;17.50;70.60
63047;DHT22;62025;39.238;9.126;2024-02-23T14:31:30;17.40;70.40
63047;DHT22;62025;39.238;9.126;2024-02-23T14:33:56;17.40;70.30
63047;DHT22;62025;39.238;9.126;2024-02-23T14:36:22;17.40;70.30
63047;DHT22;62025;39.238;9.126;2024-02-23T14:38:49;17.50;69.90
63047;DHT22;62025;39.238;9.126;2024-02-23T14:41:15;17.40;69.10
63047;DHT22;62025;39.238;9.126;2024-02-23T14:43:41;17.40;68.80
63047;DHT22;62025;39.238;9.126;2024-02-23T14:46:07;17.40;68.70
63047;DHT22;62025;39.238;9.126;2024-02-23T14:48:35;17.40;68.60
63047;DHT22;62025;39.238;9.126;2024-02-23T14:51:01;17.40;68.90
63047;DHT22;62025;39.238;9.126;2024-02-23T14:53:29;17.40;69.50
63047;DHT22;62025;39.238;9.126;2024-02-23T14:55:55;17.30;69.70
63047;DHT22;62025;39.238;9.126;2024-02-23T14:58:21;17.20;70.20
63047;DHT22;62025;39.238;9.126;2024-02-23T15:00:47;17.30;70.10
63047;DHT22;62025;39.238;9.126;2024-02-23T15:03:14;17.20;69.90
63047;DHT22;62025;39.238;9.126;2024-02-23T15:05:40;17.00;69.60
63047;DHT22;62025;39.238;9.126;2024-02-23T15:08:07;17.00;69.10
63047;DHT22;62025;39.238;9.126;2024-02-23T15:10:33;16.90;68.90
63047;DHT22;62025;39.238;9.126;2024-02-23T15:13:00;16.90;68.40
63047;DHT22;62025;39.238;9.126;2024-02-23T15:15:26;16.90;68.60
63047;DHT22;62025;39.238;9.126;2024-02-23T15:17:52;16.80;68.90
63047;DHT22;62025;39.238;9.126;2024-02-23T15:20:18;16.80;68.60
63047;DHT22;62025;39.238;9.126;2024-02-23T15:22:45;16.80;68.50
63047;DHT22;62025;39.238;9.126;2024-02-23T15:25:12;16.80;68.60
63047;DHT22;62025;39.238;9.126;2024-02-23T15:27:38;16.80;68.40
63047;DHT22;62025;39.238;9.126;2024-02-23T15:30:05;16.70;68.40
63047;DHT22;62025;39.238;9.126;2024-02-23T15:32:35;16.70;68.30